Time;durP1;ratioP1;P1;durP2;ratioP2;P2;SDS_P1;SDS_P2;PMS_P1;PMS_P2;Temp;Humidity;BMP_temperature;BMP_pressure;BME280_temperature;BME280_humidity;BME280_pressure;Samples;Min_cycle;Max_cycle;Signal;HPM_P1;HPM_P2
2022/11/03 00:01:36;;;;;;;18.33;7.68;;;8.70;99.90;;;7.60;100.00;97792.97;5031393;28;20411;-74
2022/11/03 00:04:03;;;;;;;12.40;6.28;;;8.70;99.90;;;7.57;100.00;97788.16;5030425;28;20395;-74
2022/11/03 00:06:28;;;;;;;14.00;6.00;;;8.60;99.90;;;7.55;100.00;97794.66;5031071;28;20407;-74
2022/11/03 00:08:57;;;;;;;12.82;5.40;;;8.60;99.90;;;7.51;100.00;97789.03;5031179;28;20545;-74
2022/11/03 00:11:23;;;;;;;12.75;5.43;;;8.60;99.90;;;7.48;100.00;97789.47;5013476;28;20765;-74
2022/11/03 00:13:50;;;;;;;17.75;6.97;;;8.60;99.90;;;7.49;100.00;97779.75;5030179;28;20403;-74
2022/11/03 00:16:16;;;;;;;14.52;6.03;;;8.60;99.90;;;7.50;100.00;97779.53;5031073;28;20497;-74
2022/11/03 00:18:42;;;;;;;16.63;6.00;;;8.50;99.90;;;7.51;100.00;97767.16;5012972;28;20446;-74
2022/11/03 00:21:10;;;;;;;24.33;6.68;;;8.60;99.90;;;7.55;100.00;97766.50;5013311;28;20426;-74
2022/11/03 00:23:39;;;;;;;20.08;5.80;;;8.60;99.90;;;7.59;100.00;97772.13;5030056;28;20740;-74
2022/11/03 00:26:08;;;;;;;17.20;6.00;;;8.60;99.90;;;7.61;100.00;97765.59;5030810;28;20406;-74
2022/11/03 00:28:36;;;;;;;22.27;7.23;;;8.60;99.90;;;7.67;100.00;97772.59;5030744;28;20399;-73
2022/11/03 00:31:07;;;;;;;18.25;7.20;;;8.70;99.90;;;7.65;100.00;97771.25;5030744;28;20552;-74
2022/11/03 00:33:34;;;;;;;22.73;8.23;;;8.70;99.90;;;7.61;100.00;97770.88;5029898;28;20395;-74
2022/11/03 00:36:00;;;;;;;19.63;6.78;;;8.70;99.90;;;7.60;100.00;97763.97;5030588;28;20827;-75
2022/11/03 00:38:27;;;;;;;23.80;7.80;;;8.60;99.90;;;7.55;100.00;97758.59;5030464;28;20893;-74
2022/11/03 00:40:53;;;;;;;20.13;7.47;;;8.60;99.90;;;7.55;100.00;97763.84;5030883;28;20413;-75
2022/11/03 00:43:20;;;;;;;22.52;7.80;;;8.60;99.90;;;7.52;100.00;97755.59;5029838;28;20413;-74
2022/11/03 00:45:45;;;;;;;26.43;7.77;;;8.60;99.90;;;7.51;100.00;97754.00;5030341;28;20411;-74
2022/11/03 00:48:29;;;;;;;18.58;7.30;;;8.50;99.90;;;7.49;100.00;97750.78;5030399;28;20508;-74
2022/11/03 00:51:03;;;;;;;26.60;8.18;;;8.50;99.90;;;7.44;100.00;97740.91;5030454;28;20391;-74
2022/11/03 00:53:30;;;;;;;26.70;8.80;;;8.50;99.90;;;7.40;100.00;97739.75;5029445;28;20410;-74
2022/11/03 00:55:57;;;;;;;15.25;7.05;;;8.50;99.90;;;7.39;100.00;97731.03;5030172;28;20411;-74
2022/11/03 00:58:23;;;;;;;18.50;6.65;;;8.50;99.90;;;7.36;100.00;97730.69;5030227;28;20445;-74
2022/11/03 01:00:49;;;;;;;18.67;7.07;;;8.40;99.90;;;7.33;100.00;97736.38;5012565;28;20428;-74
2022/11/03 01:03:16;;;;;;;23.38;7.22;;;8.40;99.90;;;7.29;100.00;97738.63;5029277;28;20406;-74
2022/11/03 01:08:31;;;;;;;28.07;7.40;;;8.40;99.90;;;7.22;100.00;97719.50;5030145;28;20496;-74
2022/11/03 01:13:49;;;;;;;18.42;6.90;;;8.20;99.90;;;7.13;100.00;97722.66;5029137;28;20484;-74
2022/11/03 01:16:15;;;;;;;20.58;6.90;;;8.20;99.90;;;7.09;100.00;97710.94;5030079;28;20403;-74
2022/11/03 01:18:42;;;;;;;17.00;6.50;;;8.20;99.90;;;7.07;100.00;97708.53;5029904;28;20919;-73
2022/11/03 01:21:08;;;;;;;14.53;6.53;;;8.20;99.90;;;7.03;100.00;97703.94;5030020;28;20708;-73
2022/11/03 01:23:34;;;;;;;16.02;5.70;;;8.10;99.90;;;7.00;100.00;97707.81;5029139;28;20881;-73
2022/11/03 01:26:04;;;;;;;17.27;7.18;;;8.10;99.90;;;6.98;100.00;97701.97;5030025;28;20403;-73
2022/11/03 01:28:29;;;;;;;21.58;7.10;;;8.10;99.90;;;6.94;100.00;97706.88;5029794;28;20440;-73
2022/11/03 01:31:01;;;;;;;18.10;6.70;;;8.10;99.90;;;6.92;100.00;97697.56;5029964;28;20486;-74
2022/11/03 01:33:26;;;;;;;20.90;7.00;;;8.00;99.90;;;6.92;100.00;97690.47;5028495;28;20506;-74
2022/11/03 01:35:54;;;;;;;17.60;6.20;;;8.00;99.90;;;6.88;100.00;97686.69;5029973;28;20454;-74
2022/11/03 01:38:19;;;;;;;15.02;6.55;;;8.00;99.90;;;6.88;100.00;97683.25;5029660;28;20407;-74
2022/11/03 01:40:45;;;;;;;16.37;5.90;;;8.00;99.90;;;6.86;100.00;97680.03;5029749;28;20927;-74
2022/11/03 01:43:15;;;;;;;14.90;6.45;;;8.00;99.90;;;6.84;100.00;97684.72;5028910;28;20501;-74
2022/11/03 01:45:42;;;;;;;21.50;6.22;;;8.00;99.90;;;6.85;100.00;97683.69;5029674;28;20891;-74
2022/11/03 01:48:10;;;;;;;20.48;5.88;;;8.00;99.90;;;6.85;100.00;97684.50;5029659;28;20398;-74
2022/11/03 01:50:36;;;;;;;19.93;6.20;;;8.00;99.90;;;6.84;100.00;97674.22;5029538;28;20443;-74
2022/11/03 01:53:03;;;;;;;14.00;5.32;;;7.90;99.90;;;6.81;100.00;97674.63;5028777;28;20469;-74
2022/11/03 01:55:35;;;;;;;19.65;5.18;;;7.90;99.90;;;6.78;100.00;97669.81;5029455;28;20521;-74
2022/11/03 01:58:06;;;;;;;13.85;5.32;;;7.90;99.90;;;6.76;100.00;97662.16;5029581;28;20465;-74
2022/11/03 02:00:32;;;;;;;19.42;5.72;;;7.80;99.90;;;6.73;100.00;97659.16;5029583;28;20402;-73
2022/11/03 02:02:59;;;;;;;14.55;5.35;;;7.80;99.90;;;6.73;100.00;97651.25;5028740;28;20911;-73
2022/11/03 02:05:27;;;;;;;16.25;5.68;;;7.80;99.90;;;6.71;100.00;97659.34;5029338;28;20402;-73
2022/11/03 02:07:59;;;;;;;18.48;5.38;;;7.80;99.90;;;6.69;100.00;97656.13;5029595;28;20417;-74
2022/11/03 02:10:26;;;;;;;13.38;5.60;;;7.80;99.90;;;6.67;100.00;97654.75;5011652;28;20524;-73
2022/11/03 02:12:52;;;;;;;14.82;5.13;;;7.80;99.90;;;6.66;100.00;97655.78;5028596;28;20412;-74
2022/11/03 02:15:20;;;;;;;15.13;5.38;;;7.80;99.90;;;6.64;100.00;97656.00;5029347;28;20468;-74
2022/11/03 02:17:48;;;;;;;16.23;5.70;;;7.70;99.90;;;6.64;100.00;97655.19;5029449;28;20406;-74
2022/11/03 02:20:18;;;;;;;13.75;5.30;;;7.70;99.90;;;6.61;100.00;97648.56;5066174;22;20460;-71
2022/11/03 02:23:24;;;;;;;14.90;5.45;;;7.70;99.90;;;6.60;100.00;97650.38;5068893;28;20841;-71
2022/11/03 02:25:53;;;;;;;17.77;5.30;;;7.70;99.90;;;6.56;100.00;97636.03;5069191;28;20465;-71
2022/11/03 02:28:23;;;;;;;14.80;4.90;;;7.70;99.90;;;6.58;100.00;97641.09;5069204;28;20564;-72
2022/11/03 02:31:02;;;;;;;14.98;4.72;;;7.60;99.90;;;6.54;100.00;97638.09;5069251;28;20444;-72
2022/11/03 02:33:40;;;;;;;12.82;5.00;;;7.70;99.90;;;6.59;100.00;97640.06;5068586;28;20498;-72
2022/11/03 02:36:13;;;;;;;18.63;5.60;;;7.70;99.90;;;6.57;100.00;97621.88;5069124;28;20760;-71
2022/11/03 02:38:47;;;;;;;13.50;4.50;;;7.70;99.90;;;6.60;100.00;97625.91;5069168;28;20444;-71
2022/11/03 02:41:16;;;;;;;16.13;4.93;;;7.70;99.90;;;6.60;100.00;97612.75;5069238;28;20475;-72
2022/11/03 02:43:44;;;;;;;12.93;4.57;;;7.70;99.90;;;6.60;100.00;97620.66;5068169;28;20452;-72
2022/11/03 02:46:13;;;;;;;13.90;5.05;;;7.70;99.90;;;6.59;100.00;97611.94;5070012;28;20428;-71
2022/11/03 02:48:39;;;;;;;25.05;5.15;;;7.70;99.90;;;6.60;100.00;97610.13;5072462;28;20403;-72
2022/11/03 02:51:05;;;;;;;13.07;4.40;;;7.70;99.90;;;6.58;100.00;97602.44;5072460;28;20444;-72
2022/11/03 02:53:39;;;;;;;16.05;4.57;;;7.70;99.90;;;6.59;100.00;97595.38;5071688;28;20896;-72
2022/11/03 02:56:12;;;;;;;14.65;4.50;;;7.70;99.90;;;6.59;100.00;97598.00;5072358;28;20458;-71
2022/11/03 02:58:48;;;;;;;13.45;5.20;;;7.70;99.90;;;6.58;100.00;97594.56;5072664;28;20542;-71
2022/11/03 03:01:18;;;;;;;14.88;4.53;;;7.70;99.90;;;6.56;100.00;97583.44;5072440;28;20392;-72
2022/11/03 03:03:51;;;;;;;15.57;4.53;;;7.70;99.90;;;6.57;100.00;97577.16;5071639;28;20400;-71
2022/11/03 03:06:23;;;;;;;18.13;5.22;;;7.70;99.90;;;6.59;100.00;97567.25;5072242;28;20881;-71
2022/11/03 03:08:55;;;;;;;15.52;4.63;;;7.70;99.90;;;6.61;100.00;97561.78;5072205;28;20477;-71
2022/11/03 03:11:35;;;;;;;16.20;5.32;;;7.70;99.90;;;6.64;100.00;97566.56;5072240;28;20404;-71
2022/11/03 03:14:07;;;;;;;15.95;5.30;;;7.70;99.90;;;6.68;100.00;97564.31;5071380;28;20403;-72
2022/11/03 03:16:41;;;;;;;17.35;4.95;;;7.80;99.90;;;6.69;100.00;97564.06;5072124;28;20442;-72
2022/11/03 03:19:17;;;;;;;13.43;4.95;;;7.80;99.90;;;6.66;100.00;97564.53;5071826;28;20839;-71
2022/11/03 03:21:47;;;;;;;13.60;4.97;;;7.80;99.90;;;6.69;100.00;97555.41;5054061;28;20472;-72
2022/11/03 03:24:21;;;;;;;20.27;5.40;;;7.80;99.90;;;6.68;100.00;97551.16;5071138;28;20403;-72
2022/11/03 03:26:48;;;;;;;14.15;5.28;;;7.80;99.90;;;6.71;100.00;97550.69;5071866;28;20453;-71
2022/11/03 03:29:21;;;;;;;14.98;4.82;;;7.80;99.90;;;6.70;100.00;97544.63;5071893;28;20767;-72
2022/11/03 03:31:52;;;;;;;14.35;4.68;;;7.80;99.90;;;6.71;100.00;97546.25;5071863;28;20524;-71
2022/11/03 03:34:20;;;;;;;15.13;5.07;;;7.80;99.90;;;6.71;100.00;97537.53;5070940;28;20399;-71
2022/11/03 03:36:48;;;;;;;18.67;5.50;;;7.80;99.90;;;6.72;100.00;97537.31;5053189;28;20399;-72
2022/11/03 03:39:18;;;;;;;16.17;4.88;;;7.80;99.90;;;6.72;100.00;97542.59;5071687;28;20392;-72
2022/11/03 03:41:46;;;;;;;17.05;5.05;;;7.80;99.90;;;6.74;100.00;97534.47;5071629;28;20523;-71
2022/11/03 03:44:13;;;;;;;20.63;4.80;;;7.80;99.90;;;6.73;100.00;97535.50;5070777;28;20396;-71
2022/11/03 03:46:46;;;;;;;14.27;5.20;;;7.80;99.90;;;6.72;100.00;97526.00;5071443;28;20442;-72
2022/11/03 03:49:13;;;;;;;17.25;5.35;;;7.80;99.90;;;6.71;100.00;97524.38;5071418;28;20776;-71
2022/11/03 03:51:40;;;;;;;13.10;4.15;;;7.80;99.90;;;6.70;100.00;97525.41;5071304;28;20764;-72
2022/11/03 03:54:06;;;;;;;20.70;5.07;;;7.80;99.90;;;6.68;100.00;97522.22;5070538;28;20398;-72
2022/11/03 03:56:36;;;;;;;14.13;4.83;;;7.80;99.90;;;6.71;100.00;97504.16;5070900;28;20408;-71
2022/11/03 03:59:03;;;;;;;17.92;5.05;;;7.80;99.90;;;6.68;100.00;97501.19;5071288;28;20831;-71
2022/11/03 04:01:29;;;;;;;14.82;5.35;;;7.80;99.90;;;6.68;100.00;97502.00;5071297;28;20397;-72
2022/11/03 04:03:56;;;;;;;11.48;4.30;;;7.80;99.90;;;6.64;100.00;97495.56;5070373;28;20404;-72
2022/11/03 04:06:22;;;;;;;14.48;4.60;;;7.70;99.90;;;6.63;100.00;97495.75;5071091;28;20490;-72
2022/11/03 04:08:48;;;;;;;15.17;5.00;;;7.70;99.90;;;6.60;100.00;97484.69;5071057;28;20400;-71
2022/11/03 04:22:16;;;;;;;13.45;5.10;;;7.60;99.90;;;6.48;100.00;97478.56;5070870;28;20556;-71
2022/11/03 04:24:42;;;;;;;9.73;4.47;;;7.60;99.90;;;6.43;100.00;97472.38;5069778;28;20396;-71
2022/11/03 04:27:28;;;;;;;13.20;4.57;;;7.60;99.90;;;6.40;100.00;97473.59;5070730;28;20873;-72
2022/11/03 04:30:02;;;;;;;12.50;4.82;;;7.50;99.90;;;6.38;100.00;97467.00;5070648;28;20406;-72
2022/11/03 04:32:29;;;;;;;15.35;5.07;;;7.50;99.90;;;6.36;100.00;97463.78;5070637;28;20404;-71
2022/11/03 04:34:58;;;;;;;11.98;4.70;;;7.50;99.90;;;6.31;100.00;97464.44;5069905;28;20970;-72
2022/11/03 04:37:27;;;;;;;11.45;4.97;;;7.50;99.90;;;6.30;100.00;97464.66;5070609;28;20873;-71
2022/11/03 04:39:58;;;;;;;19.10;5.50;;;7.40;99.90;;;6.26;100.00;97461.66;5070402;28;20436;-71
2022/11/03 04:42:24;;;;;;;12.77;5.13;;;7.40;99.90;;;6.24;100.00;97462.94;5070500;28;20443;-71
2022/11/03 04:44:50;;;;;;;18.08;5.80;;;7.40;99.90;;;6.22;100.00;97453.44;5069514;28;20400;-72
2022/11/03 04:47:17;;;;;;;16.65;6.10;;;7.40;99.90;;;6.22;100.00;97456.06;5070396;28;20408;-72
2022/11/03 04:49:45;;;;;;;11.23;5.53;;;7.40;99.90;;;6.21;100.00;97448.38;5070282;28;20877;-72
2022/11/03 04:52:16;;;;;;;11.43;4.95;;;7.30;99.90;;;6.17;100.00;97444.59;5070511;28;20399;-71
2022/11/03 04:54:43;;;;;;;12.10;5.25;;;7.30;99.90;;;6.17;100.00;97453.28;5069166;28;20905;-72
2022/11/03 04:57:13;;;;;;;17.25;6.10;;;7.30;99.90;;;6.17;100.00;97447.22;5070231;28;20395;-71
2022/11/03 04:59:39;;;;;;;13.07;5.68;;;7.30;99.90;;;6.16;100.00;97448.25;5070070;28;20926;-72
2022/11/03 05:02:12;;;;;;;14.88;6.00;;;7.30;99.90;;;6.14;100.00;97445.03;5070157;28;20509;-71
2022/11/03 05:04:38;;;;;;;14.05;5.53;;;7.30;99.90;;;6.12;100.00;97441.81;5069526;28;20395;-72
2022/11/03 05:07:21;;;;;;;14.00;5.40;;;7.30;99.90;;;6.12;100.00;97436.56;5070037;28;20881;-71
2022/11/03 05:09:47;;;;;;;18.90;6.57;;;7.30;99.90;;;6.12;100.00;97433.94;5069324;28;20461;-71
2022/11/03 05:12:14;;;;;;;12.85;5.78;;;7.20;99.90;;;6.10;100.00;97422.84;5070033;28;20415;-71
2022/11/03 05:14:40;;;;;;;15.13;5.60;;;7.20;99.90;;;6.07;100.00;97431.19;5068915;28;20980;-71
2022/11/03 05:17:17;;;;;;;10.43;5.47;;;7.20;99.90;;;6.06;100.00;97421.69;5069937;28;20490;-73
2022/11/03 05:19:43;;;;;;;15.40;6.43;;;7.20;99.90;;;6.05;100.00;97418.25;5069751;28;20491;-74
2022/11/03 05:22:19;;;;;;;17.30;6.40;;;7.20;99.90;;;6.03;100.00;97414.25;5069897;28;20540;-74
2022/11/03 05:24:45;;;;;;;16.23;5.90;;;7.20;99.90;;;6.02;100.00;97410.00;5069087;28;20759;-74
2022/11/03 05:27:19;;;;;;;15.13;6.25;;;7.20;99.90;;;5.99;100.00;97405.22;5070014;28;20421;-73
2022/11/03 05:29:46;;;;;;;14.97;6.03;;;7.10;99.90;;;5.96;100.00;97398.56;5069820;28;20868;-74
2022/11/03 05:32:26;;;;;;;18.98;6.20;;;7.10;99.90;;;5.94;100.00;97399.81;5069602;28;20765;-73
2022/11/03 05:34:54;;;;;;;14.45;5.88;;;7.10;99.90;;;5.92;100.00;97391.34;5050820;28;20416;-72
2022/11/03 05:37:27;;;;;;;14.88;6.00;;;7.10;99.90;;;5.90;100.00;97391.56;5069706;28;20391;-72
2022/11/03 05:39:57;;;;;;;12.93;5.93;;;7.00;99.90;;;5.87;100.00;97396.41;5070009;28;20400;-72
2022/11/03 05:42:33;;;;;;;17.05;5.93;;;7.10;99.90;;;5.85;100.00;97388.78;5069594;28;20815;-73
2022/11/03 05:45:03;;;;;;;17.75;6.80;;;7.00;99.90;;;5.83;100.00;97377.69;5068966;28;20750;-73
2022/11/03 05:47:36;;;;;;;11.27;6.15;;;7.00;99.90;;;5.81;100.00;97371.84;5069933;28;20593;-74
2022/11/03 05:50:16;;;;;;;16.88;6.88;;;7.00;99.90;;;5.81;100.00;97370.00;5069354;28;20769;-74
2022/11/03 05:52:46;;;;;;;15.20;5.78;;;7.00;99.90;;;5.80;100.00;97378.13;5068907;28;20463;-75
2022/11/03 05:55:26;;;;;;;13.30;5.80;;;7.00;99.90;;;5.75;100.00;97362.22;5069228;28;20415;-74
2022/11/03 05:57:55;;;;;;;17.90;5.90;;;6.90;99.90;;;5.72;100.00;97366.09;5069616;28;20829;-74
2022/11/03 06:00:28;;;;;;;12.00;5.80;;;6.90;99.90;;;5.70;100.00;97365.53;5069434;28;20849;-74
2022/11/03 06:02:55;;;;;;;16.80;6.68;;;6.90;99.90;;;5.67;100.00;97373.81;5068811;28;20451;-74
2022/11/03 06:05:23;;;;;;;14.75;6.03;;;6.90;99.90;;;5.65;100.00;97364.56;5069448;28;20395;-74
2022/11/03 06:07:54;;;;;;;13.13;5.45;;;6.90;99.90;;;5.62;100.00;97362.38;5069465;28;20876;-74
2022/11/03 06:10:24;;;;;;;19.70;6.63;;;6.80;99.90;;;5.61;100.00;97361.59;5069418;28;20431;-74
2022/11/03 06:12:54;;;;;;;13.77;6.00;;;6.80;99.90;;;5.61;100.00;97355.53;5068495;28;20774;-74
2022/11/03 06:15:28;;;;;;;13.13;5.85;;;6.80;99.90;;;5.55;100.00;97344.09;5069191;28;20498;-73
2022/11/03 06:17:54;;;;;;;13.25;5.75;;;6.70;99.90;;;5.55;100.00;97346.72;5069410;28;20438;-74
2022/11/03 06:20:21;;;;;;;16.23;6.43;;;6.70;99.90;;;5.55;100.00;97335.41;5070355;28;20908;-74
2022/11/03 06:22:51;;;;;;;21.13;6.68;;;6.70;99.90;;;5.56;100.00;97326.50;5072446;28;20819;-74
2022/11/03 06:25:27;;;;;;;15.38;6.22;;;6.70;99.90;;;5.55;100.00;97330.16;5073110;28;20444;-74
2022/11/03 06:27:55;;;;;;;12.30;5.57;;;6.70;99.90;;;5.54;100.00;97318.84;5073131;28;20932;-73
2022/11/03 06:30:25;;;;;;;15.68;6.43;;;6.70;99.90;;;5.54;100.00;97328.53;5072787;28;20405;-74
2022/11/03 06:32:52;;;;;;;12.63;5.83;;;6.70;99.90;;;5.56;100.00;97331.75;5072149;28;20465;-73
2022/11/03 06:35:18;;;;;;;13.60;6.18;;;6.70;99.90;;;5.55;100.00;97327.53;5072735;28;20509;-73
2022/11/03 06:37:44;;;;;;;14.13;6.22;;;6.70;99.90;;;5.57;100.00;97328.09;5072781;28;20404;-74
2022/11/03 06:40:33;;;;;;;16.92;7.03;;;6.70;99.90;;;5.58;100.00;97329.69;5072809;28;20396;-73
2022/11/03 06:43:12;;;;;;;18.33;6.50;;;6.70;99.90;;;5.57;100.00;97325.47;5071937;28;20883;-74
2022/11/03 06:45:44;;;;;;;14.10;6.10;;;6.70;99.90;;;5.58;100.00;97334.94;5072588;28;20817;-73
2022/11/03 06:48:14;;;;;;;14.00;6.30;;;6.70;99.90;;;5.63;100.00;97335.09;5072701;28;20444;-74
2022/11/03 06:50:40;;;;;;;13.00;6.10;;;6.80;99.90;;;5.69;100.00;97335.03;5072656;28;20797;-74
2022/11/03 06:53:08;;;;;;;17.92;6.22;;;6.80;99.90;;;5.75;100.00;97336.75;5069600;28;20865;-73
2022/11/03 06:55:39;;;;;;;18.13;6.80;;;6.90;99.90;;;5.81;100.00;97332.44;5070723;28;20635;-74
2022/11/03 06:58:16;;;;;;;18.52;6.65;;;6.90;99.90;;;5.86;100.00;97322.09;5072180;28;20439;-74
2022/11/03 07:00:42;;;;;;;16.90;6.95;;;7.00;99.90;;;5.93;100.00;97325.47;5072329;28;20451;-74
2022/11/03 07:03:15;;;;;;;15.02;6.30;;;7.00;99.90;;;5.99;100.00;97316.69;5071528;28;20399;-74
2022/11/03 07:05:43;;;;;;;17.75;7.43;;;7.10;99.90;;;6.07;100.00;97320.81;5072141;28;20403;-74
2022/11/03 07:08:20;;;;;;;23.60;7.13;;;7.20;99.90;;;6.20;100.00;97323.25;5072294;28;20444;-74
2022/11/03 07:10:50;;;;;;;23.33;8.25;;;7.30;99.90;;;6.29;100.00;97315.84;5072243;28;20442;-74
2022/11/03 07:13:23;;;;;;;15.32;6.85;;;7.40;99.90;;;6.42;100.00;97313.81;5071267;28;20396;-73
2022/11/03 07:15:50;;;;;;;15.35;7.10;;;7.50;99.90;;;6.49;100.00;97298.75;5072010;28;20857;-75
2022/11/03 07:18:21;;;;;;;15.43;6.63;;;7.60;99.90;;;6.58;100.00;97296.56;5054204;28;20812;-74
2022/11/03 07:20:48;;;;;;;15.18;6.70;;;7.60;99.90;;;6.63;100.00;97291.44;5071887;28;20474;-73
2022/11/03 07:23:18;;;;;;;11.48;6.03;;;7.70;99.90;;;6.68;100.00;97299.44;5070169;28;20435;-71
2022/11/03 07:25:48;;;;;;;15.73;6.00;;;7.70;99.90;;;6.72;100.00;97291.88;5067542;28;20490;-74
2022/11/03 07:28:15;;;;;;;10.00;5.90;;;7.80;99.90;;;6.77;100.00;97290.16;5071236;28;20416;-74
2022/11/03 07:30:41;;;;;;;16.45;6.38;;;7.80;99.90;;;6.80;100.00;97289.72;5070762;28;20963;-74
2022/11/03 07:33:15;;;;;;;15.90;6.10;;;7.80;99.90;;;6.85;100.00;97289.03;5069545;28;20420;-73
2022/11/03 07:35:43;;;;;;;13.57;6.47;;;7.90;99.90;;;6.88;100.00;97283.31;5071470;28;20462;-74
2022/11/03 07:38:13;;;;;;;17.13;6.70;;;7.90;99.90;;;7.00;100.00;97286.72;5078582;28;20392;-73
2022/11/03 07:40:40;;;;;;;13.52;6.38;;;8.00;99.90;;;7.03;100.00;97291.53;5080148;28;20807;-74
2022/11/03 07:43:17;;;;;;;22.00;7.93;;;8.10;99.90;;;7.12;100.00;97278.84;5079231;28;20403;-74
2022/11/03 07:45:47;;;;;;;19.15;6.93;;;8.20;99.90;;;7.14;100.00;97276.78;5088344;28;20475;-75
2022/11/03 07:48:23;;;;;;;23.20;7.43;;;8.20;99.90;;;7.22;100.00;97277.19;5072224;28;20422;-75
2022/11/03 07:50:50;;;;;;;21.13;6.80;;;8.20;99.90;;;7.25;100.00;97270.69;5069539;28;20408;-75
2022/11/03 07:53:23;;;;;;;21.27;7.30;;;8.30;99.90;;;7.27;100.00;97263.34;5068332;28;20411;-76
2022/11/03 07:58:40;;;;;;;17.77;6.60;;;8.40;99.90;;;7.43;100.00;97262.63;5091611;22;20449;-76
2022/11/03 08:01:26;;;;;;;15.85;6.55;;;8.50;99.90;;;7.57;100.00;97258.69;5080458;28;20914;-78
2022/11/03 08:03:59;;;;;;;15.48;6.97;;;8.60;99.90;;;7.62;100.00;97261.41;5059300;28;20434;-76
2022/11/03 08:06:26;;;;;;;12.63;5.73;;;8.60;99.90;;;7.67;100.00;97252.78;5089362;28;20568;-77
2022/11/03 08:08:52;;;;;;;11.35;5.60;;;8.70;99.90;;;7.77;100.00;97239.81;5086039;28;20410;-77
2022/11/03 08:11:25;;;;;;;15.85;6.20;;;8.80;99.90;;;7.78;100.00;97236.94;5069319;28;20414;-76
2022/11/03 08:13:56;;;;;;;16.25;5.97;;;8.80;99.90;;;7.78;100.00;97230.88;5057785;28;20891;-76
2022/11/03 08:16:22;;;;;;;12.82;5.55;;;8.80;99.90;;;7.86;100.00;97217.31;5079248;28;20421;-77
2022/11/03 08:18:49;;;;;;;11.93;5.80;;;8.90;99.90;;;8.00;100.00;97218.59;5075530;28;20398;-76
2022/11/03 08:21:20;;;;;;;16.85;6.05;;;9.00;99.90;;;8.00;100.00;97210.69;5082316;28;20404;-77
2022/11/03 08:23:50;;;;;;;17.63;5.63;;;9.00;99.90;;;8.11;100.00;97209.03;5082892;28;20406;-76
2022/11/03 08:26:16;;;;;;;15.25;5.38;;;9.10;99.90;;;8.13;100.00;97204.31;5084979;22;20891;-73
2022/11/03 08:28:42;;;;;;;14.48;5.38;;;9.20;99.90;;;8.13;100.00;97199.84;5044068;28;20428;-71
2022/11/03 08:31:09;;;;;;;13.48;5.70;;;9.10;99.90;;;8.28;100.00;97207.19;5038328;28;20452;-72
2022/11/03 08:33:35;;;;;;;11.98;4.93;;;9.20;99.90;;;8.27;100.00;97197.66;5038040;28;20473;-73
2022/11/03 08:36:03;;;;;;;14.35;4.70;;;9.30;99.90;;;8.41;100.00;97193.72;5018010;28;20431;-71
2022/11/03 08:38:29;;;;;;;13.70;5.03;;;9.30;99.90;;;8.52;100.00;97186.72;5028426;28;20412;-72
2022/11/03 08:40:59;;;;;;;8.85;4.18;;;9.50;99.90;;;8.60;100.00;97188.16;5019714;28;20507;-72
2022/11/03 08:43:25;;;;;;;12.50;4.60;;;9.50;99.90;;;8.76;100.00;97187.34;5017283;28;20415;-73
2022/11/03 08:45:52;;;;;;;14.43;6.20;;;9.70;99.90;;;8.73;100.00;97188.59;5023324;28;20784;-72
2022/11/03 08:48:20;;;;;;;13.35;4.70;;;9.70;99.90;;;8.83;100.00;97180.03;5019739;28;20415;-72
2022/11/03 08:50:47;;;;;;;14.27;4.10;;;9.70;99.90;;;8.69;100.00;97181.44;5025084;28;20429;-72
2022/11/03 08:53:13;;;;;;;12.50;4.40;;;9.70;99.90;;;8.69;100.00;97181.44;5020969;28;20471;-73
2022/11/03 08:55:39;;;;;;;9.82;4.43;;;9.60;99.90;;;8.86;100.00;97171.63;5018163;28;20416;-71
2022/11/03 08:58:04;;;;;;;9.03;4.00;;;9.80;99.90;;;8.88;100.00;97166.88;5015965;28;20409;-71
2022/11/03 09:00:30;;;;;;;14.93;4.03;;;9.80;99.90;;;8.93;100.00;97175.69;5023453;28;20407;-72
2022/11/03 09:02:56;;;;;;;12.43;3.97;;;9.80;99.90;;;9.02;100.00;97173.41;5012935;28;20417;-72
2022/11/03 09:05:23;;;;;;;8.70;4.00;;;9.90;99.90;;;9.11;100.00;97164.00;5026655;28;20402;-73
2022/11/03 09:07:49;;;;;;;14.70;4.18;;;10.00;99.90;;;9.11;100.00;97160.56;5026917;28;20847;-73
2022/11/03 09:10:15;;;;;;;14.55;4.20;;;10.00;99.90;;;9.10;100.00;97161.59;5016626;28;20454;-71
2022/11/03 09:12:41;;;;;;;15.50;4.47;;;10.10;99.90;;;9.19;100.00;97160.94;5019330;28;20764;-73
2022/11/03 09:15:10;;;;;;;5.55;3.47;;;10.10;99.90;;;9.32;100.00;97165.06;5017440;28;21280;-72
2022/11/03 09:17:36;;;;;;;9.40;3.17;;;10.20;99.90;;;9.43;100.00;97158.81;5016981;28;20541;-73
2022/11/03 09:20:03;;;;;;;7.57;3.20;;;10.30;99.90;;;9.53;100.00;97164.22;5022225;28;20417;-71
2022/11/03 09:22:31;;;;;;;6.93;3.10;;;10.40;99.90;;;9.64;100.00;97154.50;5022558;28;20414;-72
2022/11/03 09:24:57;;;;;;;5.20;2.60;;;10.50;99.90;;;9.74;100.00;97159.09;5016288;28;20803;-72
2022/11/03 09:27:23;;;;;;;5.72;2.85;;;10.60;99.90;;;9.76;100.00;97152.53;5021595;28;20429;-71
2022/11/03 09:29:49;;;;;;;7.33;2.93;;;10.60;99.90;;;9.93;100.00;97150.53;5021741;28;20484;-69
2022/11/03 09:32:15;;;;;;;10.40;3.00;;;10.80;99.90;;;9.96;100.00;97144.75;5015260;28;20927;-70
2022/11/03 09:34:41;;;;;;;7.40;3.00;;;10.80;99.90;;;10.01;100.00;97147.44;5024543;28;20455;-71
2022/11/03 09:37:07;;;;;;;10.02;3.10;;;10.90;99.90;;;10.06;100.00;97149.34;5017978;28;20984;-71
2022/11/03 09:39:34;;;;;;;9.50;3.30;;;10.90;99.90;;;10.09;100.00;97146.97;5010136;28;20428;-71
2022/11/03 09:42:02;;;;;;;6.72;2.70;;;11.00;99.90;;;10.21;100.00;97143.38;5010085;28;20405;-71
2022/11/03 09:44:32;;;;;;;5.30;2.60;;;11.00;99.90;;;10.29;100.00;97140.28;5010899;28;20461;-69
2022/11/03 09:46:59;;;;;;;8.15;3.00;;;11.10;99.90;;;10.33;100.00;97128.91;5021929;28;20436;-70
2022/11/03 09:49:26;;;;;;;7.80;2.67;;;11.20;99.90;;;10.25;100.00;97120.66;5026982;28;20888;-69
2022/11/03 09:51:54;;;;;;;7.25;2.63;;;11.10;99.90;;;10.35;100.00;97124.16;5024986;28;20427;-70
2022/11/03 09:54:20;;;;;;;5.13;2.40;;;11.20;99.90;;;10.43;100.00;97122.91;5035264;28;20518;-71
2022/11/03 09:56:48;;;;;;;5.13;2.40;;;11.30;99.90;;;10.51;100.00;97113.66;5024799;28;20415;-71
2022/11/03 09:59:16;;;;;;;8.70;2.73;;;11.30;99.90;;;10.49;100.00;97119.22;5027973;28;20421;-73
2022/11/03 10:01:44;;;;;;;7.78;2.72;;;11.30;99.90;;;10.50;100.00;97110.22;5039390;28;20418;-69
2022/11/03 10:04:11;;;;;;;5.22;2.42;;;11.30;99.90;;;10.52;100.00;97109.97;5024957;28;20837;-69
2022/11/03 10:06:37;;;;;;;6.97;2.70;;;11.40;99.90;;;10.53;100.00;97108.91;5016312;28;20455;-70
2022/11/03 10:09:04;;;;;;;8.43;2.70;;;11.40;99.90;;;10.55;100.00;97110.25;5033320;28;20804;-70
2022/11/03 10:11:30;;;;;;;11.25;3.83;;;11.40;99.90;;;10.45;100.00;97105.69;5030073;28;20400;-70
2022/11/03 10:13:57;;;;;;;8.85;3.08;;;11.40;99.90;;;10.50;100.00;97102.28;5023046;28;20566;-71
2022/11/03 10:16:25;;;;;;;6.97;3.00;;;11.40;99.90;;;10.56;100.00;97103.09;5023568;28;20923;-70
2022/11/03 10:18:51;;;;;;;8.07;3.10;;;11.40;99.90;;;10.52;100.00;97104.69;5027520;28;21021;-71
2022/11/03 10:21:22;;;;;;;7.10;3.13;;;11.40;99.90;;;10.46;100.00;97106.50;5026045;28;20409;-71
2022/11/03 10:23:49;;;;;;;13.20;3.60;;;11.30;99.90;;;10.48;100.00;97097.25;5020584;28;20773;-71
2022/11/03 10:26:17;;;;;;;8.88;3.10;;;11.30;99.90;;;10.51;100.00;97095.16;5030207;28;20490;-70
2022/11/03 10:28:59;;;;;;;7.35;2.97;;;11.40;99.90;;;10.48;100.00;97093.81;5027286;28;20970;-70
2022/11/03 10:31:33;;;;;;;5.90;3.20;;;11.30;99.90;;;10.50;100.00;97075.81;5025473;28;20423;-70
2022/11/03 10:34:28;;;;;;;7.32;2.85;;;11.40;99.90;;;10.65;100.00;97078.53;5024025;28;20786;-72
2022/11/03 10:37:19;;;;;;;5.53;2.70;;;11.50;99.90;;;10.71;100.00;97076.69;5022432;28;20509;-71
2022/11/03 10:39:46;;;;;;;7.93;2.88;;;11.50;99.90;;;10.68;100.00;97070.06;5023604;28;20415;-71
2022/11/03 10:42:19;;;;;;;10.50;3.15;;;11.60;99.90;;;10.71;100.00;97064.25;5022352;28;20414;-71
2022/11/03 10:44:47;;;;;;;9.93;3.85;;;11.60;99.90;;;10.77;100.00;97057.13;5020549;28;20506;-71
2022/11/03 10:47:25;;;;;;;11.20;3.63;;;11.60;99.90;;;10.83;100.00;97059.53;5022854;28;20403;-71